Terminal Aerodrome Forecast
Issued by NWS

Home | Current Version | Previous Version | Text Only | Print | Product List | Glossary On
Versions: 1 2 3 4 5 6 7 8 9 10 11 12 13 14 15 16 17 18 19 20 21 22 23 24 25 26 27 28 29 30 31 32 33 34 35 36 37 38 39 40 41 42 43 44 45 46 47 48 49 50
000
FTUS43 KDMX 270208 AAC
TAFOTM
TAF AMD
KOTM 270208Z 2702/2724 31003KT 3SM BR SCT005 OVC013
     FM270600 34004KT 3SM BR OVC005
     FM271000 36005KT 2SM -SHRA BR OVC007
     FM271200 02006KT 2SM -RA BR OVC003
     FM271600 02008KT 1 1/2SM -RA OVC003
     FM271800 01008KT 5SM BR OVC012
     FM272100 36009KT P6SM OVC020=

USA.gov is the U.S. government's official web portal to all federal, state and local government web resources and services.